createdAt,value
2023-01-02T00:01:11.895Z,24.57
2023-01-02T00:03:45.679Z,25.97
2023-01-02T00:06:18.577Z,22.37
2023-01-02T00:08:51.490Z,24.43
2023-01-02T00:11:24.823Z,25.25
2023-01-02T00:13:58.083Z,26.97
2023-01-02T00:16:30.892Z,27.85
2023-01-02T00:19:04.510Z,25.15
2023-01-02T00:21:37.391Z,26.57
2023-01-02T00:24:10.760Z,26.37
2023-01-02T00:26:43.410Z,29.67
2023-01-02T00:29:17.189Z,26.33
2023-01-02T00:31:49.924Z,28.12
2023-01-02T00:34:22.749Z,25.95
2023-01-02T00:36:55.533Z,28.15
2023-01-02T00:39:30.111Z,29.40
2023-01-02T00:42:02.917Z,26.15
2023-01-02T00:44:36.097Z,25.62
2023-01-02T00:47:08.750Z,26.17
2023-01-02T00:49:42.614Z,30.35
2023-01-02T00:52:15.451Z,26.57
2023-01-02T00:54:48.255Z,29.02
2023-01-02T00:57:20.927Z,28.10
2023-01-02T00:59:53.640Z,28.10
2023-01-02T01:02:26.805Z,27.48
2023-01-02T01:04:59.821Z,28.73
2023-01-02T01:07:33.749Z,30.55
2023-01-02T01:10:07.262Z,28.35
2023-01-02T01:12:40.556Z,27.27
2023-01-02T01:15:13.547Z,27.25
2023-01-02T01:17:47.090Z,33.05
2023-01-02T01:20:19.966Z,28.60
2023-01-02T01:22:52.940Z,28.35
2023-01-02T01:25:25.564Z,29.75
2023-01-02T01:27:58.416Z,23.30
2023-01-02T01:30:31.163Z,27.73
2023-01-02T01:33:05.215Z,28.98
2023-01-02T01:35:38.298Z,26.65
2023-01-02T01:38:11.078Z,27.02
2023-01-02T01:40:44.474Z,26.13
2023-01-02T01:43:17.258Z,31.50
2023-01-02T01:45:50.009Z,28.20
2023-01-02T01:50:56.130Z,28.90
2023-01-02T01:53:29.211Z,28.17
2023-01-02T01:56:07.349Z,27.10
2023-01-02T01:58:47.013Z,30.97
2023-01-02T02:01:20.813Z,27.15
2023-01-02T02:03:54.075Z,29.92
2023-01-02T02:06:26.737Z,27.73
2023-01-02T02:09:06.716Z,29.77
2023-01-02T02:11:39.760Z,28.20
2023-01-02T02:14:12.699Z,36.80
2023-01-02T02:17:08.167Z,27.50
2023-01-02T02:20:25.267Z,31.25
2023-01-02T02:23:23.778Z,27.70
2023-01-02T02:26:13.936Z,28.55
2023-01-02T02:29:11.083Z,30.00
2023-01-02T02:32:00.124Z,28.35
2023-01-02T02:35:12.887Z,32.55
2023-01-02T02:38:08.479Z,36.20
2023-01-02T02:41:04.119Z,26.50
2023-01-02T02:44:09.502Z,36.05
2023-01-02T02:46:59.469Z,28.65
2023-01-02T02:50:08.317Z,30.25
2023-01-02T02:52:54.143Z,27.70
2023-01-02T02:55:31.775Z,32.67
2023-01-02T02:58:04.568Z,31.90
2023-01-02T03:00:38.057Z,29.95
2023-01-02T03:03:22.684Z,29.15
2023-01-02T03:09:42.983Z,32.83
2023-01-02T03:12:41.646Z,29.90
2023-01-02T03:15:33.061Z,29.67
2023-01-02T03:18:28.555Z,29.37
2023-01-02T03:21:18.205Z,29.48
2023-01-02T03:23:51.845Z,36.68
2023-01-02T03:26:28.270Z,28.10
2023-01-02T03:29:05.717Z,30.75
2023-01-02T03:31:41.827Z,28.90
2023-01-02T03:34:18.829Z,29.40
2023-01-02T03:36:55.534Z,31.62
2023-01-02T03:39:32.026Z,28.80
2023-01-02T03:42:14.465Z,29.27
2023-01-02T03:44:58.685Z,32.20
2023-01-02T03:47:58.778Z,30.40
2023-01-02T03:50:43.892Z,30.48
2023-01-02T03:53:16.885Z,27.10
2023-01-02T03:56:18.869Z,29.48
2023-01-02T03:59:02.365Z,33.50
2023-01-02T04:02:00.251Z,28.65
2023-01-02T04:04:55.826Z,28.92
2023-01-02T04:07:42.427Z,30.05
2023-01-02T04:10:17.189Z,30.82
2023-01-02T04:12:54.158Z,28.57
2023-01-02T04:15:29.989Z,30.08
2023-01-02T04:18:07.687Z,26.23
2023-01-02T04:20:47.720Z,30.77
2023-01-02T04:23:45.056Z,33.13
2023-01-02T04:26:22.582Z,26.75
2023-01-02T04:28:55.730Z,26.62
2023-01-02T04:31:48.320Z,35.78
2023-01-02T04:34:21.602Z,32.63
2023-01-02T04:36:54.448Z,32.05
2023-01-02T04:39:29.621Z,31.37
2023-01-02T04:42:02.376Z,33.23
2023-01-02T04:44:36.243Z,30.12
2023-01-02T04:47:10.508Z,30.08
2023-01-02T04:49:44.486Z,31.75
2023-01-02T04:52:18.068Z,30.00
2023-01-02T04:54:50.726Z,31.90
2023-01-02T04:57:23.973Z,31.45
2023-01-02T04:59:56.960Z,36.77
2023-01-02T05:02:29.803Z,28.38
2023-01-02T05:05:02.723Z,27.27
2023-01-02T05:07:36.957Z,31.40
2023-01-02T05:10:11.515Z,33.45
2023-01-02T05:12:44.928Z,29.47
2023-01-02T05:15:18.688Z,34.25
2023-01-02T05:17:51.947Z,33.90
2023-01-02T05:20:26.450Z,30.15
2023-01-02T05:23:18.062Z,31.87
2023-01-02T05:25:50.774Z,29.70
2023-01-02T05:28:23.488Z,29.50
2023-01-02T05:30:56.137Z,34.60
2023-01-02T05:33:28.929Z,33.18
2023-01-02T05:36:01.945Z,28.02
2023-01-02T05:38:35.999Z,30.43
2023-01-02T05:41:09.713Z,33.20
2023-01-02T05:43:42.536Z,30.27
2023-01-02T05:46:18.917Z,27.13
2023-01-02T05:48:51.762Z,29.98
2023-01-02T05:51:25.103Z,31.63
2023-01-02T05:53:57.847Z,30.02
2023-01-02T05:56:31.845Z,33.33
2023-01-02T05:59:08.992Z,30.17
2023-01-02T06:01:41.918Z,33.20
2023-01-02T06:04:19.589Z,29.32
2023-01-02T06:06:50.726Z,33.40
2023-01-02T06:09:23.737Z,27.50
2023-01-02T06:11:56.575Z,30.52
2023-01-02T06:14:29.246Z,29.23
2023-01-02T06:17:03.835Z,30.80
2023-01-02T06:19:36.550Z,32.28
2023-01-02T06:22:09.818Z,28.90
2023-01-02T06:24:42.794Z,26.93
2023-01-02T06:27:15.488Z,30.02
2023-01-02T06:29:48.331Z,31.90
2023-01-02T06:32:21.695Z,30.35
2023-01-02T06:34:54.464Z,29.52
2023-01-02T06:37:28.357Z,30.30
2023-01-02T06:40:02.104Z,26.37
2023-01-02T06:42:35.269Z,32.33
2023-01-02T06:45:09.177Z,30.52
2023-01-02T06:47:42.336Z,26.35
2023-01-02T06:50:15.573Z,29.27
2023-01-02T06:52:49.009Z,25.50
2023-01-02T06:55:21.880Z,30.25
2023-01-02T06:57:54.686Z,31.10
2023-01-02T07:00:28.138Z,30.62
2023-01-02T07:03:01.032Z,29.48
2023-01-02T07:05:33.917Z,27.65
2023-01-02T07:08:06.846Z,29.65
2023-01-02T07:10:40.771Z,27.35
2023-01-02T07:13:13.557Z,29.50
2023-01-02T07:15:47.135Z,26.95
2023-01-02T07:18:20.377Z,26.68
2023-01-02T07:20:56.355Z,26.75
2023-01-02T07:23:28.988Z,29.82
2023-01-02T07:26:04.524Z,29.30
2023-01-02T07:28:38.680Z,28.80
2023-01-02T07:31:17.596Z,27.62
2023-01-02T07:33:50.658Z,25.85
2023-01-02T07:36:24.587Z,32.95
2023-01-02T07:38:58.267Z,26.12
2023-01-02T07:41:31.341Z,26.65
2023-01-02T07:44:04.358Z,25.12
2023-01-02T07:46:37.233Z,27.05
2023-01-02T07:49:14.461Z,25.43
2023-01-02T07:51:47.404Z,30.77
2023-01-02T07:54:20.301Z,25.27
2023-01-02T07:56:54.642Z,26.73
2023-01-02T08:01:59.934Z,22.98
2023-01-02T08:04:35.608Z,26.73
2023-01-02T08:07:08.367Z,26.85
2023-01-02T08:09:41.218Z,24.20
2023-01-02T08:12:14.003Z,29.20
2023-01-02T08:14:47.093Z,23.52
2023-01-02T08:17:20.154Z,27.07
2023-01-02T08:19:53.612Z,24.67
2023-01-02T08:22:27.054Z,31.23
2023-01-02T08:25:00.418Z,23.70
2023-01-02T08:27:33.896Z,23.40
2023-01-02T08:30:07.651Z,24.37
2023-01-02T08:32:43.462Z,22.85
2023-01-02T08:35:16.715Z,22.60
2023-01-02T08:37:50.789Z,25.65
2023-01-02T08:40:24.285Z,24.35
2023-01-02T08:42:57.296Z,22.10
2023-01-02T08:45:30.146Z,20.30
2023-01-02T08:48:20.706Z,22.95
2023-01-02T08:50:39.095Z,21.73
2023-01-02T08:53:12.959Z,20.45
2023-01-02T08:55:45.925Z,21.02
2023-01-02T08:58:18.846Z,22.70
2023-01-02T09:00:53.794Z,21.37
2023-01-02T09:03:27.011Z,27.42
2023-01-02T09:05:59.898Z,22.53
2023-01-02T09:08:34.090Z,22.25
2023-01-02T09:11:19.693Z,21.33
2023-01-02T09:13:53.613Z,19.42
2023-01-02T09:16:26.805Z,19.55
2023-01-02T09:19:02.462Z,21.68
2023-01-02T09:21:35.586Z,19.02
2023-01-02T09:24:09.447Z,25.70
2023-01-02T09:26:43.143Z,24.15
2023-01-02T09:29:17.117Z,17.80
2023-01-02T09:31:49.931Z,18.57
2023-01-02T09:34:22.928Z,20.27
2023-01-02T09:36:55.839Z,18.35
2023-01-02T09:39:32.607Z,21.30
2023-01-02T09:42:05.544Z,23.50
2023-01-02T09:44:46.315Z,22.27
2023-01-02T09:47:25.980Z,20.65
2023-01-02T09:50:06.351Z,23.10
2023-01-02T09:52:43.881Z,20.05
2023-01-02T09:55:19.943Z,21.37
2023-01-02T09:58:22.804Z,22.52
2023-01-02T10:00:55.755Z,20.72
2023-01-02T10:03:45.742Z,20.08
2023-01-02T10:06:23.354Z,22.45
2023-01-02T10:09:25.972Z,19.90
2023-01-02T10:12:30.424Z,19.85
2023-01-02T10:15:11.062Z,22.13
2023-01-02T10:17:48.166Z,21.85
2023-01-02T10:20:32.037Z,21.97
2023-01-02T10:23:12.716Z,20.48
2023-01-02T10:25:59.176Z,20.52
2023-01-02T10:28:48.440Z,22.20
2023-01-02T10:31:41.423Z,21.65
2023-01-02T10:34:21.538Z,21.23
2023-01-02T10:36:54.718Z,21.62
2023-01-02T10:39:30.753Z,27.50
2023-01-02T10:42:04.988Z,20.32
2023-01-02T10:47:36.563Z,19.32
2023-01-02T10:50:14.372Z,23.00
2023-01-02T10:52:53.886Z,20.05
2023-01-02T10:55:39.918Z,23.27
2023-01-02T10:58:28.832Z,21.52
2023-01-02T11:01:21.077Z,26.93
2023-01-02T11:04:02.669Z,22.60
2023-01-02T11:06:39.711Z,23.32
2023-01-02T11:09:28.836Z,21.57
2023-01-02T11:12:15.524Z,25.75
2023-01-02T11:14:50.388Z,20.17
2023-01-02T11:17:25.704Z,20.62
2023-01-02T11:19:59.440Z,23.00
2023-01-02T11:22:38.303Z,20.53
2023-01-02T11:25:22.250Z,19.73
2023-01-02T11:28:02.622Z,25.77
2023-01-02T11:30:54.229Z,19.87
2023-01-02T11:33:31.708Z,21.87
2023-01-02T11:36:15.072Z,22.62
2023-01-02T11:38:59.640Z,24.57
2023-01-02T11:41:47.613Z,20.70
2023-01-02T11:44:30.467Z,25.45
2023-01-02T11:47:03.923Z,21.87
2023-01-02T11:52:22.260Z,20.92
2023-01-02T11:55:15.008Z,20.20
2023-01-02T11:58:14.865Z,21.52
2023-01-02T12:00:52.615Z,23.27
2023-01-02T12:03:27.491Z,20.77
2023-01-02T12:06:24.005Z,21.00
2023-01-02T12:09:07.085Z,26.05
2023-01-02T12:11:45.318Z,22.45
2023-01-02T12:14:25.023Z,24.25
2023-01-02T12:17:33.116Z,24.30
2023-01-02T12:20:41.748Z,23.45
2023-01-02T12:23:46.855Z,23.02
2023-01-02T12:26:25.419Z,24.80
2023-01-02T12:29:47.300Z,26.25
2023-01-02T12:32:28.583Z,23.87
2023-01-02T12:35:45.549Z,26.23
2023-01-02T12:38:35.156Z,26.48
2023-01-02T12:41:24.928Z,25.45
2023-01-02T12:44:40.510Z,24.12
2023-01-02T12:47:35.976Z,24.82
2023-01-02T12:50:49.071Z,27.00
2023-01-02T12:54:19.966Z,25.43
2023-01-02T12:56:56.894Z,27.27
2023-01-02T13:00:00.324Z,26.70
2023-01-02T13:03:14.580Z,24.35
2023-01-02T13:05:51.229Z,26.60
2023-01-02T13:08:55.937Z,29.98
2023-01-02T13:11:45.136Z,26.65
2023-01-02T13:14:23.127Z,33.13
2023-01-02T13:17:26.693Z,29.18
2023-01-02T13:20:42.306Z,29.50
2023-01-02T13:23:39.939Z,25.37
2023-01-02T13:26:24.973Z,26.87
2023-01-02T13:29:14.663Z,23.15
2023-01-02T13:31:54.085Z,24.85
2023-01-02T13:34:32.906Z,24.72
2023-01-02T13:37:10.278Z,26.55
2023-01-02T13:39:47.965Z,27.25
2023-01-02T13:42:53.488Z,23.02
2023-01-02T13:45:34.049Z,26.75
2023-01-02T13:48:45.603Z,25.20
2023-01-02T13:51:23.267Z,27.40
2023-01-02T13:53:57.420Z,24.40
2023-01-02T13:56:31.454Z,26.65
2023-01-02T13:59:42.981Z,23.70
2023-01-02T14:02:09.306Z,26.95
2023-01-02T14:04:44.044Z,26.00
2023-01-02T14:07:34.257Z,25.90
2023-01-02T14:10:27.132Z,26.05
2023-01-02T14:13:04.619Z,29.65
2023-01-02T14:15:43.700Z,28.15
2023-01-02T14:18:18.599Z,26.77
2023-01-02T14:20:51.753Z,26.73
2023-01-02T14:23:41.152Z,31.77
2023-01-02T14:26:30.325Z,24.70
2023-01-02T14:29:13.704Z,25.62
2023-01-02T14:31:48.193Z,29.23
2023-01-02T14:34:26.085Z,28.75
2023-01-02T14:37:00.928Z,31.40
2023-01-02T14:39:37.155Z,28.15
2023-01-02T14:42:43.581Z,27.98
2023-01-02T14:45:20.817Z,29.27
2023-01-02T14:47:57.980Z,32.38
2023-01-02T14:50:33.038Z,30.10
2023-01-02T14:53:25.904Z,30.48
2023-01-02T14:56:09.263Z,29.35
2023-01-02T14:58:50.958Z,33.08
2023-01-02T15:01:42.040Z,30.12
2023-01-02T15:04:17.049Z,29.20
2023-01-02T15:06:55.305Z,31.97
2023-01-02T15:09:38.226Z,35.48
2023-01-02T15:12:52.287Z,31.35
2023-01-02T15:15:29.779Z,35.98
2023-01-02T15:18:16.459Z,34.08
2023-01-02T15:20:55.893Z,37.58
2023-01-02T15:23:29.683Z,35.28
2023-01-02T15:26:33.072Z,32.67
2023-01-02T15:28:38.500Z,36.17
2023-01-02T15:31:16.528Z,39.90
2023-01-02T15:34:00.051Z,37.03
2023-01-02T15:36:41.670Z,37.40
2023-01-02T15:39:21.802Z,37.73
2023-01-02T15:41:58.245Z,38.20
2023-01-02T15:44:54.319Z,37.83
2023-01-02T15:47:28.600Z,37.08
2023-01-02T15:50:02.152Z,35.70
2023-01-02T15:52:35.871Z,33.42
2023-01-02T15:55:18.618Z,39.83
2023-01-02T15:57:56.098Z,41.10
2023-01-02T16:00:40.430Z,37.67
2023-01-02T16:03:16.356Z,34.55
2023-01-02T16:05:56.405Z,35.80
2023-01-02T16:08:34.272Z,37.33
2023-01-02T16:11:05.556Z,38.80
2023-01-02T16:14:03.536Z,44.33
2023-01-02T16:16:57.450Z,36.80
2023-01-02T16:19:48.078Z,37.45
2023-01-02T16:22:44.096Z,36.53
2023-01-02T16:25:35.771Z,38.20
2023-01-02T16:28:35.940Z,42.85
2023-01-02T16:30:49.213Z,34.58
2023-01-02T16:33:34.759Z,35.38
2023-01-02T16:36:12.080Z,39.88
2023-01-02T16:38:55.235Z,38.80
2023-01-02T16:41:37.520Z,37.42
2023-01-02T16:44:20.131Z,44.05
2023-01-02T16:46:53.356Z,38.67
2023-01-02T16:49:26.835Z,38.48
2023-01-02T16:52:00.838Z,38.63
2023-01-02T16:54:34.171Z,40.28
2023-01-02T16:57:16.793Z,40.03
2023-01-02T16:59:49.967Z,35.73
2023-01-02T17:02:22.931Z,41.35
2023-01-02T17:04:55.913Z,38.95
2023-01-02T17:07:28.704Z,35.95
2023-01-02T17:10:01.658Z,40.45
2023-01-02T17:12:41.263Z,38.23
2023-01-02T17:15:12.796Z,41.75
2023-01-02T17:17:46.338Z,40.55
2023-01-02T17:20:19.701Z,40.58
2023-01-02T17:22:52.940Z,37.98
2023-01-02T17:25:26.545Z,40.00
2023-01-02T17:27:59.975Z,43.83
2023-01-02T17:30:32.926Z,36.93
2023-01-02T17:33:06.066Z,38.08
2023-01-02T17:35:39.473Z,38.27
2023-01-02T17:38:12.319Z,44.48
2023-01-02T17:40:46.370Z,49.13
2023-01-02T17:43:19.389Z,41.37
2023-01-02T17:45:52.552Z,43.15
2023-01-02T17:48:25.640Z,42.13
2023-01-02T17:50:58.814Z,40.48
2023-01-02T17:53:31.852Z,44.00
2023-01-02T17:56:20.665Z,40.03
2023-01-02T17:58:39.408Z,46.65
2023-01-02T18:01:21.391Z,43.33
2023-01-02T18:03:54.790Z,44.53
2023-01-02T18:06:27.827Z,44.10
2023-01-02T18:09:01.441Z,39.23
2023-01-02T18:11:35.633Z,44.40
2023-01-02T18:16:45.527Z,44.20
2023-01-02T18:19:32.975Z,45.88
2023-01-02T18:22:16.181Z,40.38
2023-01-02T18:24:50.383Z,40.05
2023-01-02T18:27:35.780Z,40.90
2023-01-02T18:30:13.729Z,45.78
2023-01-02T18:32:46.915Z,41.92
2023-01-02T18:38:02.509Z,41.50
2023-01-02T18:40:36.560Z,41.58
2023-01-02T18:43:23.008Z,40.88
2023-01-02T18:45:59.294Z,41.95
2023-01-02T18:48:32.938Z,40.92
2023-01-02T18:51:06.951Z,41.37
2023-01-02T18:53:45.397Z,42.83
2023-01-02T18:56:28.335Z,41.10
2023-01-02T18:59:17.670Z,45.30
2023-01-02T19:01:52.991Z,41.80
2023-01-02T19:04:30.550Z,45.10
2023-01-02T19:07:20.122Z,38.98
2023-01-02T19:09:54.347Z,42.20
2023-01-02T19:12:47.081Z,43.15
2023-01-02T19:15:53.122Z,41.00
2023-01-02T19:18:30.194Z,41.33
2023-01-02T19:21:18.586Z,36.80
2023-01-02T19:24:01.604Z,34.80
2023-01-02T19:26:42.445Z,37.33
2023-01-02T19:29:25.249Z,32.45
2023-01-02T19:32:25.897Z,30.82
2023-01-02T19:35:40.238Z,25.05
2023-01-02T19:38:26.611Z,19.95
2023-01-02T19:40:59.510Z,23.20
2023-01-02T19:43:32.848Z,22.30
2023-01-02T19:46:05.993Z,32.85
2023-01-02T19:48:39.404Z,32.30
2023-01-02T19:51:12.190Z,26.07
2023-01-02T19:53:45.056Z,26.80
2023-01-02T19:56:17.997Z,23.47
2023-01-02T19:58:51.660Z,24.50
2023-01-02T20:01:24.943Z,21.93
2023-01-02T20:03:58.014Z,19.87
2023-01-02T20:06:31.506Z,21.48
2023-01-02T20:09:04.552Z,26.70
2023-01-02T20:11:55.217Z,24.02
2023-01-02T20:14:28.946Z,26.97
2023-01-02T20:17:02.531Z,29.97
2023-01-02T20:19:36.865Z,42.13
2023-01-02T20:22:09.892Z,42.08
2023-01-02T20:24:44.085Z,30.80
2023-01-02T20:27:17.686Z,43.58
2023-01-02T20:29:51.477Z,59.23
2023-01-02T20:32:26.709Z,46.05
2023-01-02T20:35:00.062Z,49.58
2023-01-02T20:37:34.433Z,55.50
2023-01-02T20:40:08.740Z,67.32
2023-01-02T20:42:41.863Z,59.50
2023-01-02T20:45:15.087Z,62.20
2023-01-02T20:47:48.231Z,148.02
2023-01-02T20:50:21.636Z,149.10
2023-01-02T20:52:57.135Z,174.90
2023-01-02T20:55:29.154Z,185.32
2023-01-02T20:58:02.078Z,144.93
2023-01-02T21:00:35.205Z,160.48
2023-01-02T21:03:08.526Z,173.15
2023-01-02T21:05:42.396Z,190.80
2023-01-02T21:08:15.354Z,180.75
2023-01-02T21:10:48.562Z,146.45
2023-01-02T21:13:21.389Z,169.80
2023-01-02T21:15:55.688Z,143.87
2023-01-02T21:23:42.580Z,156.43
2023-01-02T21:26:19.863Z,123.78
2023-01-02T21:28:52.989Z,119.45
2023-01-02T21:31:27.658Z,110.78
2023-01-02T21:34:00.589Z,132.32
2023-01-02T21:36:35.348Z,75.83
2023-01-02T21:39:09.923Z,63.75
2023-01-02T21:42:00.718Z,57.98
2023-01-02T21:44:33.615Z,67.78
2023-01-02T21:47:06.507Z,79.15
2023-01-02T21:49:39.232Z,80.42
2023-01-02T21:52:12.329Z,63.50
2023-01-02T21:54:45.332Z,59.77
2023-01-02T21:57:27.493Z,56.20
2023-01-02T21:59:52.532Z,48.13
2023-01-02T22:02:35.260Z,40.15
2023-01-02T22:05:00.145Z,45.05
2023-01-02T22:07:36.938Z,56.53
2023-01-02T22:10:09.473Z,52.90
2023-01-02T22:12:43.293Z,39.13
2023-01-02T22:15:16.006Z,35.55
2023-01-02T22:17:49.590Z,44.23
2023-01-02T22:20:22.641Z,34.88
2023-01-02T22:22:55.425Z,40.80
2023-01-02T22:25:28.376Z,40.00
2023-01-02T22:28:01.627Z,64.77
2023-01-02T22:30:35.416Z,52.58
2023-01-02T22:33:08.431Z,57.85
2023-01-02T22:35:41.554Z,44.98
2023-01-02T22:38:14.815Z,37.83
2023-01-02T22:40:47.764Z,41.63
2023-01-02T22:43:24.653Z,42.25
2023-01-02T22:45:56.773Z,44.20
2023-01-02T22:48:34.023Z,41.02
2023-01-02T22:51:10.982Z,38.10
2023-01-02T22:53:44.256Z,39.23
2023-01-02T22:56:22.504Z,41.23
2023-01-02T22:58:55.548Z,43.85
2023-01-02T23:01:35.336Z,37.73
2023-01-02T23:04:17.949Z,34.10
2023-01-02T23:07:22.855Z,42.03
2023-01-02T23:09:26.638Z,44.53
2023-01-02T23:11:59.711Z,47.70
2023-01-02T23:14:32.713Z,55.55
2023-01-02T23:17:23.272Z,47.65
2023-01-02T23:19:56.641Z,42.27
2023-01-02T23:22:30.685Z,39.08
2023-01-02T23:25:04.917Z,45.50
2023-01-02T23:27:37.979Z,47.90
2023-01-02T23:30:12.682Z,51.20
2023-01-02T23:32:45.945Z,64.85
2023-01-02T23:35:18.911Z,82.55
2023-01-02T23:37:51.519Z,86.08
2023-01-02T23:40:24.489Z,76.00
2023-01-02T23:42:57.296Z,50.15
2023-01-02T23:45:30.725Z,56.80
2023-01-02T23:48:03.914Z,53.43
2023-01-02T23:50:36.696Z,57.38
2023-01-02T23:53:10.043Z,56.98
2023-01-02T23:55:44.367Z,57.05
